KCYS/CYS METAR and TAF weather

Enter ICAO airport designator
Station Type Date Time Source
KCYS METAR 2021/04/18 00:53 UTC NOAA

KCYS 180053Z 32010G18KT 10SM FEW060 03/M07 A3016 RMK AO2 SLP235 T00331067


Station Type Date Time Source
KCYS Decoded METAR 2021/04/18 00:53 UTC NOAA

CHEYENNE AIRPORT, WY, United States (KCYS) 41-09N 104-48W 1865M
Apr 17, 2021 - 08:53 PM EDT / 2021.04.18 0053 UTC
Wind: from the NW (320 degrees) at 12 MPH (10 KT) gusting to 21 MPH (18 KT):0
Visibility: 10 mile(s):0
Sky conditions: mostly clear
Temperature: 37.9 F (3.3 C)
Dew Point: 19.9 F (-6.7 C)
Relative Humidity: 47%
Pressure (altimeter): 30.16 in. Hg (1021 hPa)
ob: KCYS 180053Z 32010G18KT 10SM FEW060 03/M07 A3016 RMK AO2 SLP235 T00331067
cycle: 1

Station Type Date Time Source
KCYS TAF 2021/04/17 20:09 UTC NOAA

TAF
AMD KCYS 172006Z 1720/1818 32017G22KT P6SM SCT040
FM172200 34012G22KT P6SM BKN100
FM180300 31008KT P6SM SKC
FM181500 31010G20KT P6SM SKC
FM181700 32012KT P6SM SKC

Example: see airport list